createdAt,value
2023-04-14T00:00:48.412Z,0.00
2023-04-14T00:01:47.543Z,0.00
2023-04-14T00:02:47.594Z,0.00
2023-04-14T00:03:47.560Z,0.00
2023-04-14T00:04:47.488Z,0.00
2023-04-14T00:05:47.420Z,0.00
2023-04-14T00:06:47.408Z,0.00
2023-04-14T00:07:47.416Z,0.00
2023-04-14T00:08:47.372Z,0.00
2023-04-14T00:09:47.394Z,0.00
2023-04-14T00:10:47.342Z,0.00
2023-04-14T00:11:47.338Z,0.00
2023-04-14T00:12:47.319Z,0.00
2023-04-14T00:13:47.310Z,0.00
2023-04-14T00:14:47.317Z,0.00
2023-04-14T00:15:47.296Z,0.00
2023-04-14T00:16:47.354Z,0.00
2023-04-14T00:17:47.287Z,0.00
2023-04-14T00:18:47.281Z,0.00
2023-04-14T00:19:48.097Z,0.00
2023-04-14T00:20:47.764Z,0.00
2023-04-14T00:21:47.773Z,0.00
2023-04-14T00:22:47.244Z,0.00
2023-04-14T00:23:47.182Z,0.00
2023-04-14T00:24:47.211Z,0.00
2023-04-14T00:25:47.167Z,0.00
2023-04-14T00:26:47.176Z,0.00
2023-04-14T00:27:47.176Z,0.00
2023-04-14T00:28:47.171Z,0.00
2023-04-14T00:29:47.149Z,0.00
2023-04-14T00:30:47.185Z,0.00
2023-04-14T00:31:47.114Z,0.00
2023-04-14T00:32:47.133Z,0.00
2023-04-14T00:33:47.077Z,0.00
2023-04-14T00:34:47.089Z,0.00
2023-04-14T00:35:47.081Z,0.00
2023-04-14T00:36:47.085Z,0.00
2023-04-14T00:37:47.045Z,0.00
2023-04-14T00:38:47.058Z,0.00
2023-04-14T00:39:47.008Z,0.00
2023-04-14T00:40:47.027Z,0.00
2023-04-14T00:41:47.002Z,0.00
2023-04-14T00:42:47.065Z,0.00
2023-04-14T00:43:46.963Z,0.00
2023-04-14T00:44:46.981Z,0.00
2023-04-14T00:45:46.940Z,0.00
2023-04-14T00:46:47.022Z,0.00
2023-04-14T00:47:47.148Z,0.00
2023-04-14T00:48:46.954Z,0.00
2023-04-14T00:49:46.892Z,0.00
2023-04-14T00:50:46.903Z,0.00
2023-04-14T00:51:46.878Z,0.00
2023-04-14T00:52:46.909Z,0.00
2023-04-14T00:53:46.871Z,0.00
2023-04-14T00:54:46.887Z,0.00
2023-04-14T00:55:46.850Z,0.00
2023-04-14T00:56:46.832Z,0.00
2023-04-14T00:57:46.803Z,0.00
2023-04-14T00:58:46.810Z,0.00
2023-04-14T00:59:46.894Z,0.00
2023-04-14T01:00:47.634Z,0.00
2023-04-14T01:01:46.983Z,0.00
2023-04-14T01:02:47.064Z,0.00
2023-04-14T01:03:47.009Z,0.00
2023-04-14T01:04:54.451Z,0.00
2023-04-14T01:05:47.734Z,0.00
2023-04-14T01:06:46.723Z,0.00
2023-04-14T01:07:46.695Z,0.00
2023-04-14T01:08:46.703Z,0.00
2023-04-14T01:09:46.665Z,0.00
2023-04-14T01:10:46.679Z,0.00
2023-04-14T01:11:46.661Z,0.00
2023-04-14T01:12:46.706Z,0.00
2023-04-14T01:13:46.638Z,0.00
2023-04-14T01:14:46.626Z,0.00
2023-04-14T01:15:46.636Z,0.00
2023-04-14T01:16:46.611Z,0.00
2023-04-14T01:17:46.629Z,0.00
2023-04-14T01:18:46.580Z,0.00
2023-04-14T01:19:46.552Z,0.00
2023-04-14T01:20:46.560Z,0.00
2023-04-14T01:21:46.534Z,0.00
2023-04-14T01:22:46.545Z,0.00
2023-04-14T01:23:46.521Z,0.00
2023-04-14T01:24:46.512Z,0.00
2023-04-14T01:25:46.481Z,0.00
2023-04-14T01:26:46.505Z,0.00
2023-04-14T01:27:46.469Z,0.00
2023-04-14T01:28:46.473Z,0.00
2023-04-14T01:29:46.437Z,0.00
2023-04-14T01:30:46.451Z,0.00
2023-04-14T01:31:46.464Z,0.00
2023-04-14T01:32:46.515Z,0.00
2023-04-14T01:33:46.398Z,0.00
2023-04-14T01:34:46.432Z,0.00
2023-04-14T01:35:46.397Z,0.00
2023-04-14T01:36:46.409Z,0.00
2023-04-14T01:37:46.352Z,0.00
2023-04-14T01:38:46.383Z,0.00
2023-04-14T01:39:46.337Z,0.00
2023-04-14T01:40:46.358Z,0.00
2023-04-14T01:41:46.317Z,0.00
2023-04-14T01:42:46.302Z,0.00
2023-04-14T01:43:46.266Z,0.00
2023-04-14T01:44:46.292Z,0.00
2023-04-14T01:45:46.320Z,0.00
2023-04-14T01:46:46.255Z,0.00
2023-04-14T01:47:46.249Z,0.00
2023-04-14T01:48:46.271Z,0.00
2023-04-14T01:49:46.239Z,0.00
2023-04-14T01:50:46.221Z,0.00
2023-04-14T01:51:46.182Z,0.00
2023-04-14T01:52:46.196Z,0.00
2023-04-14T01:53:46.174Z,0.00
2023-04-14T01:54:46.176Z,0.00
2023-04-14T01:55:46.148Z,0.00
2023-04-14T01:56:46.155Z,0.00
2023-04-14T01:57:46.111Z,0.00
2023-04-14T01:58:46.123Z,0.00
2023-04-14T01:59:46.101Z,0.00
2023-04-14T02:00:46.565Z,0.00
2023-04-14T02:01:46.091Z,0.00
2023-04-14T02:02:46.585Z,0.00
2023-04-14T02:03:46.223Z,0.00
2023-04-14T02:04:46.078Z,0.00
2023-04-14T02:05:46.038Z,0.00
2023-04-14T02:06:46.139Z,0.00
2023-04-14T02:07:46.025Z,0.00
2023-04-14T02:08:46.030Z,0.00
2023-04-14T02:09:45.986Z,0.00
2023-04-14T02:10:46.046Z,0.00
2023-04-14T02:11:45.955Z,0.00
2023-04-14T02:12:45.972Z,0.00
2023-04-14T02:13:45.976Z,0.00
2023-04-14T02:14:45.961Z,0.00
2023-04-14T02:15:45.914Z,0.00
2023-04-14T02:16:45.952Z,0.00
2023-04-14T02:17:45.918Z,0.00
2023-04-14T02:18:45.910Z,0.00
2023-04-14T02:19:45.860Z,0.00
2023-04-14T02:20:45.881Z,0.00
2023-04-14T02:21:45.829Z,0.00
2023-04-14T02:22:46.033Z,0.00
2023-04-14T02:23:46.035Z,0.00
2023-04-14T02:24:45.837Z,0.00
2023-04-14T02:25:45.803Z,0.00
2023-04-14T02:26:45.795Z,0.00
2023-04-14T02:27:45.779Z,0.00
2023-04-14T02:28:45.812Z,0.00
2023-04-14T02:29:45.746Z,0.00
2023-04-14T02:30:45.777Z,0.00
2023-04-14T02:31:45.735Z,0.00
2023-04-14T02:32:45.785Z,0.00
2023-04-14T02:33:45.700Z,0.00
2023-04-14T02:34:45.721Z,0.00
2023-04-14T02:35:45.692Z,0.00
2023-04-14T02:36:45.696Z,0.00
2023-04-14T02:37:45.651Z,0.00
2023-04-14T02:38:45.667Z,0.00
2023-04-14T02:39:45.629Z,0.00
2023-04-14T02:40:45.643Z,0.00
2023-04-14T02:41:45.626Z,0.00
2023-04-14T02:42:45.629Z,0.00
2023-04-14T02:43:45.591Z,0.00
2023-04-14T02:44:45.640Z,0.00
2023-04-14T02:45:45.641Z,0.00
2023-04-14T02:46:45.601Z,0.00
2023-04-14T02:47:45.614Z,0.00
2023-04-14T02:48:45.559Z,0.00
2023-04-14T02:49:45.517Z,0.00
2023-04-14T02:50:45.573Z,0.00
2023-04-14T02:51:45.511Z,0.00
2023-04-14T02:52:45.520Z,0.00
2023-04-14T02:53:45.479Z,0.00
2023-04-14T02:54:45.494Z,0.00
2023-04-14T02:55:45.476Z,0.00
2023-04-14T02:56:45.474Z,0.00
2023-04-14T02:57:45.434Z,0.00
2023-04-14T02:58:45.454Z,0.00
2023-04-14T02:59:45.417Z,0.00
2023-04-14T03:00:45.430Z,0.00
2023-04-14T03:01:45.473Z,0.00
2023-04-14T03:02:45.461Z,0.00
2023-04-14T03:03:45.429Z,0.00
2023-04-14T03:04:45.381Z,0.00
2023-04-14T03:05:45.356Z,0.00
2023-04-14T03:06:45.374Z,0.00
2023-04-14T03:07:45.322Z,0.00
2023-04-14T03:08:45.332Z,0.00
2023-04-14T03:09:45.291Z,0.00
2023-04-14T03:10:45.324Z,0.00
2023-04-14T03:11:45.288Z,0.00
2023-04-14T03:12:45.295Z,0.00
2023-04-14T03:13:45.272Z,0.00
2023-04-14T03:14:45.263Z,0.00
2023-04-14T03:15:45.260Z,0.00
2023-04-14T03:16:45.262Z,0.00
2023-04-14T03:17:45.265Z,0.00
2023-04-14T03:18:45.241Z,0.00
2023-04-14T03:19:45.184Z,0.00
2023-04-14T03:20:45.192Z,0.00
2023-04-14T03:21:45.170Z,0.00
2023-04-14T03:22:45.174Z,0.00
2023-04-14T03:23:45.310Z,0.00
2023-04-14T03:24:45.151Z,0.00
2023-04-14T03:25:45.115Z,0.00
2023-04-14T03:26:45.126Z,0.00
2023-04-14T03:27:45.104Z,0.00
2023-04-14T03:28:45.116Z,0.00
2023-04-14T03:29:45.062Z,0.00
2023-04-14T03:30:45.097Z,0.00
2023-04-14T03:31:45.114Z,0.00
2023-04-14T03:32:45.109Z,0.00
2023-04-14T03:33:45.028Z,0.00
2023-04-14T03:34:45.035Z,0.00
2023-04-14T03:35:45.019Z,0.00
2023-04-14T03:36:45.020Z,0.00
2023-04-14T03:37:44.981Z,0.00
2023-04-14T03:38:45.001Z,0.00
2023-04-14T03:39:44.964Z,0.00
2023-04-14T03:40:44.974Z,0.00
2023-04-14T03:41:44.943Z,0.00
2023-04-14T03:42:44.973Z,0.00
2023-04-14T03:43:44.920Z,0.00
2023-04-14T03:44:45.256Z,0.00
2023-04-14T03:45:45.355Z,0.00
2023-04-14T03:46:44.953Z,0.00
2023-04-14T03:47:44.929Z,0.00
2023-04-14T03:48:44.925Z,0.00
2023-04-14T03:49:44.867Z,0.00
2023-04-14T03:50:44.869Z,0.00
2023-04-14T03:51:44.819Z,0.00
2023-04-14T03:52:44.833Z,0.00
2023-04-14T03:53:44.810Z,0.00
2023-04-14T03:54:44.840Z,0.00
2023-04-14T03:55:47.558Z,0.00
2023-04-14T03:56:44.815Z,0.00
2023-04-14T03:57:44.756Z,0.00
2023-04-14T03:58:44.785Z,0.00
2023-04-14T03:59:44.743Z,0.00
2023-04-14T04:00:44.755Z,0.00
2023-04-14T04:01:44.760Z,0.00
2023-04-14T04:02:44.830Z,0.00
2023-04-14T04:03:44.998Z,0.00
2023-04-14T04:04:44.978Z,0.00
2023-04-14T04:05:44.675Z,0.00
2023-04-14T04:06:44.679Z,0.00
2023-04-14T04:07:44.646Z,0.00
2023-04-14T04:08:44.690Z,0.00
2023-04-14T04:09:44.635Z,0.00
2023-04-14T04:10:44.639Z,0.00
2023-04-14T04:11:44.600Z,0.00
2023-04-14T04:12:44.618Z,0.00
2023-04-14T04:13:45.145Z,0.00
2023-04-14T04:14:44.597Z,0.00
2023-04-14T04:15:44.563Z,0.00
2023-04-14T04:16:44.569Z,0.00
2023-04-14T04:17:44.833Z,0.00
2023-04-14T04:18:44.538Z,0.00
2023-04-14T04:19:44.543Z,0.00
2023-04-14T04:20:44.564Z,0.00
2023-04-14T04:21:44.484Z,0.00
2023-04-14T04:22:44.540Z,0.00
2023-04-14T04:23:44.482Z,0.00
2023-04-14T04:24:44.503Z,0.00
2023-04-14T04:25:44.811Z,0.00
2023-04-14T04:26:44.449Z,0.00
2023-04-14T04:27:44.422Z,0.00
2023-04-14T04:28:44.429Z,0.00
2023-04-14T04:29:44.435Z,0.00
2023-04-14T04:30:44.393Z,0.00
2023-04-14T04:31:44.434Z,0.00
2023-04-14T04:32:44.414Z,0.00
2023-04-14T04:33:44.374Z,0.00
2023-04-14T04:34:44.346Z,0.00
2023-04-14T04:35:44.367Z,0.00
2023-04-14T04:36:44.338Z,0.00
2023-04-14T04:37:44.371Z,0.00
2023-04-14T04:38:44.294Z,0.00
2023-04-14T04:39:44.318Z,0.00
2023-04-14T04:40:44.275Z,0.00
2023-04-14T04:41:44.319Z,0.00
2023-04-14T04:42:44.248Z,0.00
2023-04-14T04:43:44.258Z,5.62
2023-04-14T04:44:44.231Z,5.62
2023-04-14T04:45:44.633Z,5.62
2023-04-14T04:46:44.254Z,5.62
2023-04-14T04:47:44.242Z,5.62
2023-04-14T04:48:44.186Z,5.62
2023-04-14T04:49:44.218Z,5.62
2023-04-14T04:50:44.207Z,5.62
2023-04-14T04:51:44.219Z,5.62
2023-04-14T04:52:44.169Z,5.62
2023-04-14T04:53:44.151Z,5.62
2023-04-14T04:54:44.116Z,11.25
2023-04-14T04:55:44.129Z,11.25
2023-04-14T04:56:44.109Z,11.25
2023-04-14T04:57:44.115Z,11.25
2023-04-14T04:58:44.098Z,11.25
2023-04-14T04:59:44.099Z,11.25
2023-04-14T05:00:44.053Z,11.25
2023-04-14T05:01:44.192Z,11.25
2023-04-14T05:02:44.172Z,11.25
2023-04-14T05:03:44.048Z,16.88
2023-04-14T05:04:44.054Z,16.88
2023-04-14T05:05:44.021Z,16.88
2023-04-14T05:06:44.006Z,16.88
2023-04-14T05:07:44.069Z,16.88
2023-04-14T05:08:43.981Z,16.88
2023-04-14T05:09:43.984Z,16.88
2023-04-14T05:10:43.952Z,16.88
2023-04-14T05:11:43.958Z,16.88
2023-04-14T05:12:43.932Z,16.88
2023-04-14T05:13:43.946Z,16.88
2023-04-14T05:14:43.912Z,22.50
2023-04-14T05:15:43.929Z,22.50
2023-04-14T05:16:43.899Z,22.50
2023-04-14T05:17:43.948Z,22.50
2023-04-14T05:18:43.858Z,22.50
2023-04-14T05:19:43.866Z,22.50
2023-04-14T05:20:43.836Z,22.50
2023-04-14T05:21:43.847Z,22.50
2023-04-14T05:22:43.810Z,22.50
2023-04-14T05:23:43.930Z,22.50
2023-04-14T05:24:43.798Z,28.12
2023-04-14T05:25:44.945Z,28.12
2023-04-14T05:27:01.775Z,28.12
2023-04-14T05:27:44.973Z,28.12
2023-04-14T05:28:43.751Z,28.12
2023-04-14T05:29:43.754Z,28.12
2023-04-14T05:30:43.739Z,28.12
2023-04-14T05:31:43.954Z,33.75
2023-04-14T05:32:43.706Z,33.75
2023-04-14T05:33:43.716Z,33.75
2023-04-14T05:34:43.696Z,33.75
2023-04-14T05:35:43.696Z,33.75
2023-04-14T05:36:43.672Z,33.75
2023-04-14T05:37:43.664Z,33.75
2023-04-14T05:38:43.645Z,33.75
2023-04-14T05:39:43.646Z,33.75
2023-04-14T05:40:43.618Z,33.75
2023-04-14T05:41:43.628Z,33.75
2023-04-14T05:42:43.631Z,39.38
2023-04-14T05:43:43.657Z,39.38
2023-04-14T05:44:43.569Z,39.38
2023-04-14T05:45:43.628Z,39.38
2023-04-14T05:46:43.585Z,39.38
2023-04-14T05:47:43.961Z,39.38
2023-04-14T05:48:43.585Z,39.38
2023-04-14T05:49:43.588Z,39.38
2023-04-14T05:50:43.627Z,39.38
2023-04-14T05:51:43.967Z,39.38
2023-04-14T05:52:43.623Z,39.38
2023-04-14T05:53:43.488Z,45.00
2023-04-14T05:54:43.499Z,45.00
2023-04-14T05:55:43.482Z,45.00
2023-04-14T05:56:43.491Z,45.00
2023-04-14T05:57:43.440Z,45.00
2023-04-14T05:58:43.438Z,45.00
2023-04-14T05:59:43.433Z,45.00
2023-04-14T06:00:43.390Z,45.00
2023-04-14T06:01:43.456Z,45.00
2023-04-14T06:02:43.450Z,45.00
2023-04-14T06:03:43.545Z,45.00
2023-04-14T06:04:43.548Z,45.00
2023-04-14T06:05:43.361Z,45.00
2023-04-14T06:06:43.317Z,45.00
2023-04-14T06:07:44.140Z,45.00
2023-04-14T06:08:43.329Z,45.00
2023-04-14T06:09:43.304Z,45.00
2023-04-14T06:10:43.273Z,50.62
2023-04-14T06:11:43.292Z,50.62
2023-04-14T06:12:43.269Z,50.62
2023-04-14T06:13:43.280Z,50.62
2023-04-14T06:14:43.224Z,50.62
2023-04-14T06:15:43.260Z,50.62
2023-04-14T06:16:43.271Z,50.62
2023-04-14T06:17:43.306Z,50.62
2023-04-14T06:18:43.204Z,50.62
2023-04-14T06:19:43.221Z,50.62
2023-04-14T06:20:43.167Z,56.25
2023-04-14T06:21:43.192Z,50.62
2023-04-14T06:22:43.157Z,50.62
2023-04-14T06:23:43.159Z,50.62
2023-04-14T06:24:43.140Z,50.62
2023-04-14T06:25:43.151Z,50.62
2023-04-14T06:26:43.105Z,50.62
2023-04-14T06:27:43.115Z,50.62
2023-04-14T06:28:43.924Z,50.62
2023-04-14T06:29:43.073Z,50.62
2023-04-14T06:30:43.088Z,50.62
2023-04-14T06:31:43.126Z,50.62
2023-04-14T06:32:43.042Z,50.62
2023-04-14T06:33:43.030Z,50.62
2023-04-14T06:34:42.996Z,50.62
2023-04-14T06:35:43.020Z,50.62
2023-04-14T06:36:42.985Z,56.25
2023-04-14T06:37:43.033Z,56.25
2023-04-14T06:38:42.950Z,56.25
2023-04-14T06:39:42.968Z,56.25
2023-04-14T06:40:43.185Z,56.25
2023-04-14T06:41:42.945Z,56.25
2023-04-14T06:42:42.948Z,56.25
2023-04-14T06:43:42.914Z,56.25
2023-04-14T06:44:42.903Z,56.25
2023-04-14T06:45:43.450Z,56.25
2023-04-14T06:46:42.881Z,56.25
2023-04-14T06:47:42.930Z,56.25
2023-04-14T06:48:42.934Z,56.25
2023-04-14T06:49:43.017Z,56.25
2023-04-14T06:50:44.268Z,56.25
2023-04-14T06:51:42.850Z,56.25
2023-04-14T06:52:42.795Z,56.25
2023-04-14T06:53:42.797Z,56.25
2023-04-14T06:54:42.778Z,56.25
2023-04-14T06:55:42.794Z,56.25
2023-04-14T06:56:42.763Z,56.25
2023-04-14T06:57:42.765Z,61.88
2023-04-14T06:58:42.772Z,61.88
2023-04-14T06:59:42.732Z,61.88
2023-04-14T07:00:42.748Z,61.88
2023-04-14T07:02:03.836Z,61.88
2023-04-14T07:02:42.736Z,61.88
2023-04-14T07:03:42.680Z,61.88
2023-04-14T07:04:42.692Z,61.88
2023-04-14T07:05:42.801Z,61.88
2023-04-14T07:06:42.649Z,61.88
2023-04-14T07:07:42.660Z,61.88
2023-04-14T07:08:42.619Z,61.88
2023-04-14T07:09:42.818Z,61.88
2023-04-14T07:10:42.586Z,61.88
2023-04-14T07:11:42.601Z,61.88
2023-04-14T07:12:42.564Z,61.88
2023-04-14T07:13:42.713Z,61.88
2023-04-14T07:14:42.565Z,61.88
2023-04-14T07:15:42.729Z,61.88
2023-04-14T07:16:42.541Z,61.88
2023-04-14T07:17:42.590Z,61.88
2023-04-14T07:18:42.512Z,61.88
2023-04-14T07:19:42.523Z,61.88
2023-04-14T07:20:42.544Z,67.50
2023-04-14T07:21:42.484Z,67.50
2023-04-14T07:22:42.447Z,67.50
2023-04-14T07:23:42.460Z,67.50
2023-04-14T07:24:42.449Z,67.50
2023-04-14T07:25:42.454Z,67.50
2023-04-14T07:26:43.387Z,67.50
2023-04-14T07:27:52.722Z,67.50
2023-04-14T07:28:43.387Z,67.50
2023-04-14T07:29:42.501Z,67.50
2023-04-14T07:30:42.388Z,67.50
2023-04-14T07:31:42.458Z,67.50
2023-04-14T07:32:42.581Z,67.50
2023-04-14T07:33:42.389Z,67.50
2023-04-14T07:34:42.377Z,67.50
2023-04-14T07:35:51.152Z,67.50
2023-04-14T07:36:43.490Z,67.50
2023-04-14T07:37:42.299Z,67.50
2023-04-14T07:38:42.264Z,67.50
2023-04-14T07:39:42.275Z,67.50
2023-04-14T07:40:42.248Z,67.50
2023-04-14T07:41:42.276Z,67.50
2023-04-14T07:42:42.255Z,67.50
2023-04-14T07:43:42.230Z,67.50
2023-04-14T07:44:42.217Z,67.50
2023-04-14T07:45:42.209Z,67.50
2023-04-14T07:46:42.222Z,67.50
2023-04-14T07:47:42.247Z,67.50
2023-04-14T07:48:42.150Z,67.50
2023-04-14T07:49:42.184Z,67.50
2023-04-14T07:50:42.152Z,73.12
2023-04-14T07:51:42.169Z,73.12
2023-04-14T07:52:42.154Z,73.12
2023-04-14T07:53:42.119Z,73.12
2023-04-14T07:54:42.109Z,73.12
2023-04-14T07:55:42.102Z,73.12
2023-04-14T07:56:42.068Z,73.12
2023-04-14T07:57:42.068Z,73.12
2023-04-14T07:58:42.082Z,73.12
2023-04-14T07:59:42.049Z,73.12
2023-04-14T08:00:42.019Z,73.12
2023-04-14T08:01:42.120Z,73.12
2023-04-14T08:02:42.281Z,73.12
2023-04-14T08:03:44.721Z,73.12
2023-04-14T08:04:41.964Z,73.12
2023-04-14T08:05:42.058Z,73.12
2023-04-14T08:06:41.974Z,73.12
2023-04-14T08:07:41.961Z,73.12
2023-04-14T08:08:41.935Z,73.12
2023-04-14T08:09:41.937Z,73.12
2023-04-14T08:10:41.911Z,73.12
2023-04-14T08:11:41.958Z,73.12
2023-04-14T08:12:41.907Z,73.12
2023-04-14T08:13:41.892Z,73.12
2023-04-14T08:14:41.863Z,73.12
2023-04-14T08:15:41.874Z,73.12
2023-04-14T08:16:41.924Z,73.12
2023-04-14T08:17:41.885Z,73.12
2023-04-14T08:18:41.810Z,73.12
2023-04-14T08:19:41.829Z,73.12
2023-04-14T08:20:41.791Z,73.12
2023-04-14T08:21:41.820Z,73.12
2023-04-14T08:22:41.810Z,73.12
2023-04-14T08:23:41.759Z,73.12
2023-04-14T08:24:41.772Z,73.12
2023-04-14T08:25:41.731Z,73.12
2023-04-14T08:26:41.742Z,73.12
2023-04-14T08:27:41.742Z,78.75
2023-04-14T08:28:41.724Z,78.75
2023-04-14T08:29:41.696Z,78.75
2023-04-14T08:30:42.455Z,78.75
2023-04-14T08:31:41.735Z,78.75
2023-04-14T08:32:41.702Z,78.75
2023-04-14T08:33:41.658Z,78.75
2023-04-14T08:35:39.190Z,78.75
2023-04-14T08:35:43.761Z,78.75
2023-04-14T08:36:41.643Z,78.75
2023-04-14T08:37:41.607Z,78.75
2023-04-14T08:38:41.596Z,78.75
2023-04-14T08:39:41.595Z,78.75
2023-04-14T08:40:41.578Z,78.75
2023-04-14T08:41:41.571Z,78.75
2023-04-14T08:42:41.613Z,78.75
2023-04-14T08:43:41.532Z,78.75
2023-04-14T08:44:41.520Z,78.75
2023-04-14T08:45:41.538Z,78.75
2023-04-14T08:46:41.569Z,78.75
2023-04-14T08:47:41.576Z,78.75
2023-04-14T08:48:41.492Z,78.75
2023-04-14T08:49:41.453Z,78.75
2023-04-14T08:50:41.471Z,78.75
2023-04-14T08:51:41.432Z,78.75
2023-04-14T08:52:41.453Z,78.75
2023-04-14T08:53:41.418Z,78.75
2023-04-14T08:54:41.438Z,78.75
2023-04-14T08:55:41.436Z,78.75
2023-04-14T08:56:41.447Z,78.75
2023-04-14T08:57:41.405Z,78.75
2023-04-14T08:58:41.378Z,78.75
2023-04-14T08:59:41.449Z,78.75
2023-04-14T09:00:41.386Z,78.75
2023-04-14T09:01:41.992Z,78.75
2023-04-14T09:02:41.505Z,78.75
2023-04-14T09:03:41.399Z,78.75
2023-04-14T09:04:41.479Z,78.75
2023-04-14T09:05:41.286Z,78.75
2023-04-14T09:06:41.325Z,78.75
2023-04-14T09:07:41.271Z,78.75
2023-04-14T09:08:41.271Z,78.75
2023-04-14T09:09:41.254Z,78.75
2023-04-14T09:10:41.240Z,78.75
2023-04-14T09:11:41.225Z,78.75
2023-04-14T09:12:41.936Z,78.75
2023-04-14T09:13:41.187Z,78.75
2023-04-14T09:14:41.260Z,78.75
2023-04-14T09:15:41.176Z,78.75
2023-04-14T09:16:41.200Z,78.75
2023-04-14T09:17:41.188Z,78.75
2023-04-14T09:18:41.169Z,84.38
2023-04-14T09:20:36.484Z,78.75
2023-04-14T09:20:42.407Z,78.75
2023-04-14T09:21:53.428Z,78.75
2023-04-14T09:22:42.262Z,78.75
2023-04-14T09:23:41.974Z,78.75
2023-04-14T09:24:41.095Z,78.75
2023-04-14T09:25:41.088Z,78.75
2023-04-14T09:26:41.280Z,78.75
2023-04-14T09:27:41.020Z,78.75
2023-04-14T09:28:41.174Z,78.75
2023-04-14T09:29:41.201Z,78.75
2023-04-14T09:30:41.866Z,84.38
2023-04-14T09:31:41.617Z,84.38
2023-04-14T09:32:41.115Z,84.38
2023-04-14T09:33:40.985Z,84.38
2023-04-14T09:34:41.018Z,73.12
2023-04-14T09:35:41.037Z,78.75
2023-04-14T09:36:40.978Z,84.38
2023-04-14T09:37:40.956Z,90.00
2023-04-14T09:38:41.098Z,90.00
2023-04-14T09:39:40.943Z,90.00
2023-04-14T09:40:40.992Z,90.00
2023-04-14T09:41:41.035Z,90.00
2023-04-14T09:42:41.027Z,90.00
2023-04-14T09:43:40.910Z,90.00
2023-04-14T09:44:40.896Z,95.62
2023-04-14T09:45:40.862Z,95.62
2023-04-14T09:46:40.896Z,95.62
2023-04-14T09:47:40.896Z,90.00
2023-04-14T09:48:40.828Z,106.88
2023-04-14T09:49:40.772Z,118.12
2023-04-14T09:50:40.786Z,157.50
2023-04-14T09:51:40.902Z,151.88
2023-04-14T09:52:42.538Z,157.50
2023-04-14T09:53:41.086Z,180.00
2023-04-14T09:54:40.771Z,196.88
2023-04-14T09:55:40.697Z,185.62
2023-04-14T09:56:40.717Z,163.12
2023-04-14T09:57:40.697Z,140.62
2023-04-14T09:58:40.747Z,129.38
2023-04-14T09:59:40.669Z,123.75
2023-04-14T10:00:40.680Z,123.75
2023-04-14T10:01:40.661Z,163.12
2023-04-14T10:02:40.692Z,180.00
2023-04-14T10:03:40.672Z,191.25
2023-04-14T10:04:40.735Z,191.25
2023-04-14T10:05:40.629Z,180.00
2023-04-14T10:06:40.602Z,180.00
2023-04-14T10:07:40.629Z,180.00
2023-04-14T10:08:40.594Z,174.38
2023-04-14T10:09:40.626Z,180.00
2023-04-14T10:10:40.555Z,174.38
2023-04-14T10:11:40.517Z,163.12
2023-04-14T10:12:40.561Z,157.50
2023-04-14T10:13:40.509Z,151.88
2023-04-14T10:14:40.513Z,140.62
2023-04-14T10:15:40.482Z,129.38
2023-04-14T10:16:40.590Z,123.75
2023-04-14T10:17:40.494Z,123.75
2023-04-14T10:18:40.489Z,123.75
2023-04-14T10:19:40.446Z,135.00
2023-04-14T10:20:40.465Z,146.25
2023-04-14T10:21:40.406Z,146.25
2023-04-14T10:22:41.263Z,146.25
2023-04-14T10:23:40.384Z,151.88
2023-04-14T10:24:40.391Z,163.12
2023-04-14T10:25:40.383Z,168.75
2023-04-14T10:26:40.397Z,168.75
2023-04-14T10:27:40.364Z,168.75
2023-04-14T10:28:40.380Z,174.38
2023-04-14T10:29:40.365Z,185.62
2023-04-14T10:30:40.338Z,208.12
2023-04-14T10:31:40.398Z,196.88
2023-04-14T10:32:40.336Z,208.12
2023-04-14T10:33:40.533Z,213.75
2023-04-14T10:34:42.632Z,225.00
2023-04-14T10:35:40.253Z,230.62
2023-04-14T10:36:40.257Z,230.62
2023-04-14T10:37:40.216Z,225.00
2023-04-14T10:38:40.258Z,213.75
2023-04-14T10:39:40.216Z,202.50
2023-04-14T10:40:40.284Z,185.62
2023-04-14T10:41:40.185Z,180.00
2023-04-14T10:42:40.226Z,163.12
2023-04-14T10:43:40.181Z,151.88
2023-04-14T10:44:40.159Z,140.62
2023-04-14T10:45:40.142Z,135.00
2023-04-14T10:46:40.206Z,135.00
2023-04-14T10:47:40.156Z,135.00
2023-04-14T10:48:40.147Z,123.75
2023-04-14T10:49:40.108Z,123.75
2023-04-14T10:50:40.116Z,135.00
2023-04-14T10:51:40.120Z,146.25
2023-04-14T10:52:40.612Z,151.88
2023-04-14T10:53:40.884Z,157.50
2023-04-14T10:54:40.045Z,157.50
2023-04-14T10:55:46.641Z,163.12
2023-04-14T10:56:41.020Z,163.12
2023-04-14T10:57:40.016Z,168.75
2023-04-14T10:58:40.039Z,174.38
2023-04-14T10:59:40.003Z,180.00
2023-04-14T11:00:40.011Z,185.62
2023-04-14T11:01:39.955Z,185.62
2023-04-14T11:02:40.014Z,196.88
2023-04-14T11:03:40.050Z,202.50
2023-04-14T11:04:40.139Z,208.12
2023-04-14T11:05:39.896Z,213.75
2023-04-14T11:06:39.923Z,225.00
2023-04-14T11:07:39.892Z,230.62
2023-04-14T11:08:39.882Z,236.25
2023-04-14T11:09:39.958Z,241.88
2023-04-14T11:10:39.874Z,241.88
2023-04-14T11:11:39.830Z,241.88
2023-04-14T11:12:39.837Z,247.50
2023-04-14T11:13:39.844Z,253.12
2023-04-14T11:14:39.849Z,253.12
2023-04-14T11:15:39.781Z,253.12
2023-04-14T11:16:44.690Z,241.88
2023-04-14T11:17:40.907Z,236.25
2023-04-14T11:18:39.747Z,225.00
2023-04-14T11:19:39.768Z,213.75
2023-04-14T11:20:39.726Z,202.50
2023-04-14T11:21:39.746Z,191.25
2023-04-14T11:22:40.142Z,185.62
2023-04-14T11:23:39.716Z,185.62
2023-04-14T11:24:39.666Z,174.38
2023-04-14T11:25:39.702Z,163.12
2023-04-14T11:26:39.678Z,157.50
2023-04-14T11:27:39.670Z,151.88
2023-04-14T11:28:39.665Z,151.88
2023-04-14T11:29:39.651Z,146.25
2023-04-14T11:30:39.625Z,140.62
2023-04-14T11:31:40.481Z,140.62
2023-04-14T11:32:39.597Z,146.25
2023-04-14T11:33:39.673Z,157.50
2023-04-14T11:34:39.590Z,163.12
2023-04-14T11:35:39.581Z,174.38
2023-04-14T11:36:39.554Z,191.25
2023-04-14T11:37:39.545Z,213.75
2023-04-14T11:38:39.542Z,225.00
2023-04-14T11:39:39.579Z,225.00
2023-04-14T11:40:39.548Z,213.75
2023-04-14T11:41:39.534Z,196.88
2023-04-14T11:42:39.489Z,191.25
2023-04-14T11:43:39.614Z,191.25
2023-04-14T11:44:39.461Z,202.50
2023-04-14T11:45:39.589Z,208.12
2023-04-14T11:46:39.559Z,208.12
2023-04-14T11:47:39.507Z,208.12
2023-04-14T11:48:39.430Z,208.12
2023-04-14T11:49:39.450Z,208.12
2023-04-14T11:50:39.375Z,208.12
2023-04-14T11:51:39.389Z,213.75
2023-04-14T11:52:39.374Z,208.12
2023-04-14T11:53:39.433Z,191.25
2023-04-14T11:54:39.522Z,174.38
2023-04-14T11:55:40.185Z,157.50
2023-04-14T11:56:39.318Z,146.25
2023-04-14T11:57:39.331Z,140.62
2023-04-14T11:58:39.313Z,140.62
2023-04-14T11:59:39.343Z,135.00
2023-04-14T12:00:39.286Z,129.38
2023-04-14T12:01:39.306Z,118.12
2023-04-14T12:02:39.365Z,118.12
2023-04-14T12:03:39.622Z,123.75
2023-04-14T12:04:39.291Z,129.38
2023-04-14T12:05:39.558Z,129.38
2023-04-14T12:06:39.202Z,129.38
2023-04-14T12:07:39.371Z,129.38
2023-04-14T12:08:39.193Z,123.75
2023-04-14T12:09:39.203Z,129.38
2023-04-14T12:10:39.177Z,140.62
2023-04-14T12:11:39.207Z,151.88
2023-04-14T12:12:39.180Z,163.12
2023-04-14T12:13:39.178Z,168.75
2023-04-14T12:14:39.134Z,168.75
2023-04-14T12:15:39.178Z,168.75
2023-04-14T12:16:39.213Z,168.75
2023-04-14T12:17:39.140Z,174.38
2023-04-14T12:18:39.063Z,191.25
2023-04-14T12:19:39.104Z,202.50
2023-04-14T12:20:39.066Z,208.12
2023-04-14T12:21:39.112Z,225.00
2023-04-14T12:22:39.102Z,236.25
2023-04-14T12:23:39.065Z,241.88
2023-04-14T12:24:39.972Z,225.00
2023-04-14T12:25:39.062Z,236.25
2023-04-14T12:26:38.977Z,219.38
2023-04-14T12:27:39.012Z,230.62
2023-04-14T12:28:39.688Z,225.00
2023-04-14T12:29:38.975Z,230.62
2023-04-14T12:30:38.943Z,202.50
2023-04-14T12:31:39.009Z,185.62
2023-04-14T12:32:38.960Z,168.75
2023-04-14T12:33:38.939Z,168.75
2023-04-14T12:34:39.660Z,157.50
2023-04-14T12:35:38.998Z,151.88
2023-04-14T12:36:49.770Z,146.25
2023-04-14T12:37:39.890Z,140.62
2023-04-14T12:38:38.889Z,135.00
2023-04-14T12:39:38.849Z,123.75
2023-04-14T12:40:38.894Z,123.75
2023-04-14T12:41:38.865Z,118.12
2023-04-14T12:42:38.806Z,118.12
2023-04-14T12:43:38.824Z,123.75
2023-04-14T12:44:38.982Z,135.00
2023-04-14T12:45:38.791Z,146.25
2023-04-14T12:46:38.912Z,163.12
2023-04-14T12:47:38.773Z,174.38
2023-04-14T12:48:38.772Z,202.50
2023-04-14T12:49:38.779Z,213.75
2023-04-14T12:50:38.705Z,230.62
2023-04-14T12:51:38.753Z,225.00
2023-04-14T12:52:38.689Z,213.75
2023-04-14T12:53:39.476Z,202.50
2023-04-14T12:54:38.684Z,191.25
2023-04-14T12:55:38.673Z,180.00
2023-04-14T12:56:38.681Z,174.38